Time;durP1;ratioP1;P1;durP2;ratioP2;P2;SDS_P1;SDS_P2;PMS_P1;PMS_P2;Temp;Humidity;BMP_temperature;BMP_pressure;BME280_temperature;BME280_humidity;BME280_pressure;Samples;Min_cycle;Max_cycle;Signal;HPM_P1;HPM_P2
2023/09/17 00:00:15;;;;;;;10.88;8.27;;;;;;;;;;6214181;23;20434;-85
2023/09/17 00:02:41;;;;;;;11.35;8.95;;;;;;;;;;6241791;23;20016;-85
2023/09/17 00:05:07;;;;;;;10.98;8.45;;;;;;;;;;6240784;23;20012;-85
2023/09/17 00:07:33;;;;;;;12.85;9.30;;;;;;;;;;6241586;23;20009;-85
2023/09/17 00:09:59;;;;;;;11.93;9.15;;;;;;;;;;6241011;23;20412;-86
2023/09/17 00:12:26;;;;;;;10.93;9.25;;;;;;;;;;6241401;23;20012;-85
2023/09/17 00:14:52;;;;;;;10.95;9.60;;;;;;;;;;6241158;23;20019;-85
2023/09/17 00:17:18;;;;;;;10.95;9.75;;;;;;;;;;6240438;23;20008;-85
2023/09/17 00:19:44;;;;;;;11.25;9.18;;;;;;;;;;6241444;23;20054;-85
2023/09/17 00:22:14;;;;;;;12.00;9.93;;;;;;;;;;6240207;23;20019;-85
2023/09/17 00:24:40;;;;;;;14.15;10.90;;;;;;;;;;6241577;23;20016;-85
2023/09/17 00:27:06;;;;;;;12.13;10.05;;;;;;;;;;6240874;23;20026;-86
2023/09/17 00:29:32;;;;;;;13.73;10.98;;;;;;;;;;6241310;23;20389;-85
2023/09/17 00:31:58;;;;;;;13.50;9.98;;;;;;;;;;6213676;23;20038;-85
2023/09/17 00:34:24;;;;;;;12.48;10.70;;;;;;;;;;6241394;23;20008;-85
2023/09/17 00:36:50;;;;;;;13.85;10.45;;;;;;;;;;6213583;23;20012;-86
2023/09/17 00:39:16;;;;;;;13.63;10.77;;;;;;;;;;6213923;23;20023;-86
2023/09/17 00:41:42;;;;;;;15.60;12.18;;;;;;;;;;6189380;23;20020;-85
2023/09/17 00:44:08;;;;;;;15.07;11.02;;;;;;;;;;6240520;23;20012;-85
2023/09/17 00:46:35;;;;;;;15.60;11.43;;;;;;;;;;6214378;23;20047;-85
2023/09/17 00:49:02;;;;;;;14.05;11.43;;;;;;;;;;6213533;23;20461;-86
2023/09/17 00:51:28;;;;;;;13.20;10.73;;;;;;;;;;6240833;23;20016;-85
2023/09/17 00:53:55;;;;;;;14.57;10.95;;;;;;;;;;6216018;23;20020;-85
2023/09/17 00:56:22;;;;;;;13.48;10.25;;;;;;;;;;6243295;23;20008;-85
2023/09/17 00:58:48;;;;;;;13.52;10.43;;;;;;;;;;6243601;23;20019;-85
2023/09/17 01:01:14;;;;;;;14.43;10.95;;;;;;;;;;6242457;23;20050;-85
2023/09/17 01:03:40;;;;;;;14.43;11.98;;;;;;;;;;6243457;23;20016;-85
2023/09/17 01:06:07;;;;;;;12.98;10.73;;;;;;;;;;6215273;23;20020;-85
2023/09/17 01:08:33;;;;;;;15.10;10.93;;;;;;;;;;6243400;23;20016;-86
2023/09/17 01:10:59;;;;;;;14.27;10.90;;;;;;;;;;6242547;23;20083;-86
2023/09/17 01:13:25;;;;;;;13.57;11.15;;;;;;;;;;6215974;23;20026;-86
2023/09/17 01:15:52;;;;;;;13.85;10.95;;;;;;;;;;6215774;23;20031;-85
2023/09/17 01:18:21;;;;;;;14.88;11.05;;;;;;;;;;6242969;23;20020;-85
2023/09/17 01:20:54;;;;;;;16.08;11.60;;;;;;;;;;6242817;23;20027;-85
2023/09/17 01:23:29;;;;;;;14.88;11.40;;;;;;;;;;6243044;23;20022;-85
2023/09/17 01:25:58;;;;;;;15.00;11.25;;;;;;;;;;6242821;23;20337;-86
2023/09/17 01:28:24;;;;;;;17.92;12.27;;;;;;;;;;6215971;23;20016;-86
2023/09/17 01:30:50;;;;;;;13.48;11.25;;;;;;;;;;6215952;23;20020;-86
2023/09/17 01:33:16;;;;;;;15.70;11.73;;;;;;;;;;6242360;23;20024;-85
2023/09/17 01:35:46;;;;;;;14.32;11.18;;;;;;;;;;6242717;23;20008;-85
2023/09/17 01:38:13;;;;;;;13.68;11.13;;;;;;;;;;6242437;23;20022;-85
2023/09/17 01:40:41;;;;;;;15.18;11.50;;;;;;;;;;6216381;23;20091;-85
2023/09/17 01:43:07;;;;;;;16.48;12.57;;;;;;;;;;6215393;23;20016;-85
2023/09/17 01:45:34;;;;;;;16.63;11.35;;;;;;;;;;6216203;23;20111;-86
2023/09/17 01:48:01;;;;;;;15.45;11.38;;;;;;;;;;6242493;23;20023;-85
2023/09/17 01:50:28;;;;;;;15.68;11.52;;;;;;;;;;6215443;23;20027;-86
2023/09/17 01:52:55;;;;;;;14.90;11.80;;;;;;;;;;6242586;23;20016;-85
2023/09/17 01:55:22;;;;;;;16.75;12.70;;;;;;;;;;6215887;23;20016;-85
2023/09/17 01:57:48;;;;;;;15.77;11.63;;;;;;;;;;6216041;23;20023;-85
2023/09/17 02:00:16;;;;;;;15.07;11.30;;;;;;;;;;6215003;23;20021;-85
2023/09/17 02:02:47;;;;;;;13.73;11.40;;;;;;;;;;6243176;23;20053;-85
2023/09/17 02:05:14;;;;;;;15.48;11.90;;;;;;;;;;6214001;23;20024;-85
2023/09/17 02:07:40;;;;;;;15.60;10.65;;;;;;;;;;6242723;23;20016;-86
2023/09/17 02:10:06;;;;;;;16.65;11.60;;;;;;;;;;6242745;23;20019;-86
2023/09/17 02:12:32;;;;;;;14.68;11.48;;;;;;;;;;6242329;23;20020;-85
2023/09/17 02:14:58;;;;;;;15.02;11.23;;;;;;;;;;6242246;23;20083;-85
2023/09/17 02:17:24;;;;;;;15.45;11.23;;;;;;;;;;6242196;23;20024;-85
2023/09/17 02:19:50;;;;;;;15.93;11.57;;;;;;;;;;6215151;23;20327;-86
2023/09/17 02:22:16;;;;;;;14.93;11.18;;;;;;;;;;6242309;23;20012;-86
2023/09/17 02:24:42;;;;;;;20.13;12.60;;;;;;;;;;6243163;23;20035;-85
2023/09/17 02:27:08;;;;;;;16.52;12.55;;;;;;;;;;6241390;23;20438;-85
2023/09/17 02:29:34;;;;;;;13.65;10.27;;;;;;;;;;6242811;23;20009;-85
2023/09/17 02:32:00;;;;;;;15.65;12.10;;;;;;;;;;6242134;23;20048;-85
2023/09/17 02:34:26;;;;;;;14.57;10.75;;;;;;;;;;6214731;23;20012;-85
2023/09/17 02:36:52;;;;;;;15.15;11.55;;;;;;;;;;6242024;23;20087;-85
2023/09/17 02:39:20;;;;;;;13.82;11.00;;;;;;;;;;6214904;23;20400;-85
2023/09/17 02:41:46;;;;;;;14.35;11.32;;;;;;;;;;6215882;23;20074;-85
2023/09/17 02:44:12;;;;;;;15.38;11.93;;;;;;;;;;6241668;23;20016;-85
2023/09/17 02:46:39;;;;;;;14.98;11.05;;;;;;;;;;6243032;23;20036;-86
2023/09/17 02:49:05;;;;;;;15.93;12.93;;;;;;;;;;6241516;23;20023;-86
2023/09/17 02:51:32;;;;;;;15.55;11.93;;;;;;;;;;6215565;23;20016;-85
2023/09/17 02:53:58;;;;;;;14.50;11.57;;;;;;;;;;6216338;23;20023;-86
2023/09/17 02:56:25;;;;;;;15.93;11.43;;;;;;;;;;6243203;23;20035;-86
2023/09/17 02:58:51;;;;;;;17.23;11.95;;;;;;;;;;6243737;23;20008;-85
2023/09/17 03:01:18;;;;;;;17.15;12.38;;;;;;;;;;6243611;23;20012;-86
2023/09/17 03:03:45;;;;;;;17.02;12.48;;;;;;;;;;6247315;23;20026;-86
2023/09/17 03:06:11;;;;;;;18.10;13.02;;;;;;;;;;6244401;23;20099;-85
2023/09/17 03:08:41;;;;;;;17.40;13.05;;;;;;;;;;6216673;23;20012;-86
2023/09/17 03:11:13;;;;;;;16.25;12.48;;;;;;;;;;6190393;23;20019;-86
2023/09/17 03:13:40;;;;;;;25.30;14.77;;;;;;;;;;6215638;23;20012;-85
2023/09/17 03:16:06;;;;;;;17.35;12.10;;;;;;;;;;6213801;23;20020;-85
2023/09/17 03:18:32;;;;;;;18.10;13.57;;;;;;;;;;6242177;23;20024;-85
2023/09/17 03:20:58;;;;;;;18.58;13.18;;;;;;;;;;6241519;23;20099;-86
2023/09/17 03:23:24;;;;;;;18.45;13.70;;;;;;;;;;6214832;23;20020;-85
2023/09/17 03:25:51;;;;;;;18.27;13.27;;;;;;;;;;6241670;23;20016;-85
2023/09/17 03:28:17;;;;;;;17.15;12.38;;;;;;;;;;6214501;23;20016;-85
2023/09/17 03:30:43;;;;;;;16.77;12.07;;;;;;;;;;6241729;23;20023;-85
2023/09/17 03:33:09;;;;;;;18.45;12.52;;;;;;;;;;6213811;23;20016;-85
2023/09/17 03:35:36;;;;;;;17.02;12.18;;;;;;;;;;6242305;23;20012;-85
2023/09/17 03:38:02;;;;;;;17.55;11.68;;;;;;;;;;6214451;23;20020;-86
2023/09/17 03:40:28;;;;;;;16.58;11.60;;;;;;;;;;6214628;23;20409;-86
2023/09/17 03:42:54;;;;;;;17.65;12.65;;;;;;;;;;6241502;23;20054;-85
2023/09/17 03:45:20;;;;;;;17.70;12.85;;;;;;;;;;6241392;23;20087;-86
2023/09/17 03:47:47;;;;;;;17.25;12.80;;;;;;;;;;6189960;23;20346;-86
2023/09/17 03:50:15;;;;;;;17.92;14.05;;;;;;;;;;6240990;23;20016;-85
2023/09/17 03:52:43;;;;;;;16.40;13.48;;;;;;;;;;6241877;23;20020;-87
2023/09/17 03:55:09;;;;;;;19.45;13.18;;;;;;;;;;6241253;23;20292;-86
2023/09/17 03:57:36;;;;;;;19.02;13.75;;;;;;;;;;6242091;23;20020;-86
2023/09/17 04:00:14;;;;;;;20.60;13.60;;;;;;;;;;6240745;23;20190;-85
2023/09/17 04:02:41;;;;;;;17.13;12.30;;;;;;;;;;6242117;23;20023;-85
2023/09/17 04:05:11;;;;;;;18.42;13.23;;;;;;;;;;6213872;23;20106;-85
2023/09/17 04:07:41;;;;;;;18.83;12.68;;;;;;;;;;6241687;23;20079;-87
2023/09/17 04:10:07;;;;;;;16.88;12.27;;;;;;;;;;6189381;23;20016;-86
2023/09/17 04:12:37;;;;;;;15.70;11.68;;;;;;;;;;6241783;23;20023;-85
2023/09/17 04:15:08;;;;;;;18.27;12.98;;;;;;;;;;6240739;23;20012;-86
2023/09/17 04:17:34;;;;;;;15.80;12.18;;;;;;;;;;6214880;23;20023;-86
2023/09/17 04:20:00;;;;;;;15.60;11.75;;;;;;;;;;6241337;23;20075;-86
2023/09/17 04:22:26;;;;;;;16.77;13.10;;;;;;;;;;6214765;23;20362;-86
2023/09/17 04:24:52;;;;;;;16.48;11.43;;;;;;;;;;6241499;23;20118;-86
2023/09/17 04:27:18;;;;;;;14.73;11.23;;;;;;;;;;6213882;23;20043;-84
2023/09/17 04:29:44;;;;;;;18.08;12.05;;;;;;;;;;6241269;23;20018;-84
2023/09/17 04:32:12;;;;;;;15.35;11.65;;;;;;;;;;6240700;23;20393;-85
2023/09/17 04:34:38;;;;;;;16.52;11.95;;;;;;;;;;6214577;23;20054;-85
2023/09/17 04:37:04;;;;;;;16.13;11.80;;;;;;;;;;6213885;23;20016;-85
2023/09/17 04:39:30;;;;;;;17.20;11.98;;;;;;;;;;6241260;23;20044;-85
2023/09/17 04:41:56;;;;;;;15.82;11.82;;;;;;;;;;6241013;23;20039;-85
2023/09/17 04:44:22;;;;;;;18.00;12.35;;;;;;;;;;6240781;23;20087;-85
2023/09/17 04:46:48;;;;;;;16.35;12.40;;;;;;;;;;6241529;23;20023;-86
2023/09/17 04:49:14;;;;;;;19.35;12.23;;;;;;;;;;6240849;23;20016;-85
2023/09/17 04:51:40;;;;;;;15.98;11.75;;;;;;;;;;6241283;23;20023;-86
2023/09/17 04:54:06;;;;;;;16.90;13.18;;;;;;;;;;6213842;23;20338;-86
2023/09/17 04:56:32;;;;;;;17.30;12.18;;;;;;;;;;6214363;23;20020;-86
2023/09/17 04:58:59;;;;;;;16.52;11.68;;;;;;;;;;6213404;23;20039;-85
2023/09/17 05:01:25;;;;;;;18.98;12.68;;;;;;;;;;6241195;23;20456;-85
2023/09/17 05:03:51;;;;;;;18.10;12.95;;;;;;;;;;6214496;23;20016;-85
2023/09/17 05:06:17;;;;;;;19.45;12.50;;;;;;;;;;6214237;23;20026;-85
2023/09/17 05:08:43;;;;;;;17.70;13.07;;;;;;;;;;6241975;23;20009;-86
2023/09/17 05:11:09;;;;;;;18.35;12.15;;;;;;;;;;6240691;23;20023;-85
2023/09/17 05:13:35;;;;;;;15.90;12.10;;;;;;;;;;6241040;23;20019;-86
2023/09/17 05:16:03;;;;;;;18.27;13.35;;;;;;;;;;6240582;23;20278;-86
2023/09/17 05:18:29;;;;;;;18.45;11.57;;;;;;;;;;6241211;23;20495;-86
2023/09/17 05:20:55;;;;;;;14.10;11.35;;;;;;;;;;6241018;23;20016;-87
2023/09/17 05:23:21;;;;;;;17.95;12.40;;;;;;;;;;6241125;23;20095;-85
2023/09/17 05:25:47;;;;;;;16.42;12.00;;;;;;;;;;6241657;23;20369;-85
2023/09/17 05:28:13;;;;;;;17.88;13.05;;;;;;;;;;6213606;23;20527;-86
2023/09/17 05:30:40;;;;;;;19.35;12.90;;;;;;;;;;6189830;23;20315;-85
2023/09/17 05:33:06;;;;;;;15.43;11.43;;;;;;;;;;6213991;23;20031;-86
2023/09/17 05:35:32;;;;;;;17.85;12.77;;;;;;;;;;6241212;23;20434;-87
2023/09/17 05:37:58;;;;;;;18.77;13.55;;;;;;;;;;6214839;23;20020;-87
2023/09/17 05:40:24;;;;;;;17.38;13.55;;;;;;;;;;6245230;23;20025;-86
2023/09/17 05:42:50;;;;;;;18.58;13.10;;;;;;;;;;6245722;23;20071;-90
2023/09/17 05:45:16;;;;;;;17.90;13.05;;;;;;;;;;6244725;23;20016;-88
2023/09/17 05:47:43;;;;;;;18.67;12.32;;;;;;;;;;6243775;23;20020;-88
2023/09/17 05:50:09;;;;;;;18.90;13.32;;;;;;;;;;6216012;23;20027;-87
2023/09/17 05:52:35;;;;;;;17.27;13.32;;;;;;;;;;6245611;23;20024;-87
2023/09/17 05:55:04;;;;;;;17.25;12.77;;;;;;;;;;6217328;23;20058;-90
2023/09/17 05:57:30;;;;;;;17.70;12.93;;;;;;;;;;6217769;23;20016;-92
2023/09/17 05:59:56;;;;;;;20.10;13.63;;;;;;;;;;6221659;23;20012;-90
2023/09/17 06:02:22;;;;;;;17.48;13.27;;;;;;;;;;6235285;23;20023;-90
2023/09/17 06:04:52;;;;;;;16.55;12.60;;;;;;;;;;6234016;23;20040;-90
2023/09/17 06:07:19;;;;;;;17.00;12.27;;;;;;;;;;6259366;23;20016;-91
2023/09/17 06:09:45;;;;;;;20.10;13.85;;;;;;;;;;6257410;23;20016;-86
2023/09/17 06:12:12;;;;;;;19.20;13.70;;;;;;;;;;6247555;23;20012;-93
2023/09/17 06:14:38;;;;;;;18.75;13.30;;;;;;;;;;6218953;23;20008;-89
2023/09/17 06:17:04;;;;;;;21.10;14.88;;;;;;;;;;6218424;23;20012;-94
2023/09/17 06:19:31;;;;;;;19.40;14.07;;;;;;;;;;6246022;23;20016;-88
2023/09/17 06:21:57;;;;;;;17.15;13.35;;;;;;;;;;6244981;23;20029;-89
2023/09/17 06:24:23;;;;;;;18.98;14.10;;;;;;;;;;6244548;23;20012;-94
2023/09/17 06:26:50;;;;;;;17.55;13.80;;;;;;;;;;6218133;23;20012;-88
2023/09/17 06:29:16;;;;;;;17.63;13.82;;;;;;;;;;6217965;23;20016;-93
2023/09/17 06:31:42;;;;;;;17.60;13.93;;;;;;;;;;6192602;23;20519;-92
2023/09/17 06:34:09;;;;;;;22.83;15.35;;;;;;;;;;6216414;23;20009;-91
2023/09/17 06:36:35;;;;;;;21.27;14.45;;;;;;;;;;6217943;23;20079;-94
2023/09/17 06:39:01;;;;;;;18.73;13.98;;;;;;;;;;6217111;23;20015;-95
2023/09/17 06:41:27;;;;;;;20.10;14.68;;;;;;;;;;6244438;23;20040;-93
2023/09/17 06:43:53;;;;;;;18.55;12.50;;;;;;;;;;6217526;23;20469;-90
2023/09/17 06:46:21;;;;;;;18.23;13.27;;;;;;;;;;6244225;23;20023;-92
2023/09/17 06:48:47;;;;;;;15.43;12.18;;;;;;;;;;6244602;23;20012;-92
2023/09/17 06:51:13;;;;;;;16.83;13.05;;;;;;;;;;6243653;23;20015;-88
2023/09/17 06:53:39;;;;;;;18.38;13.93;;;;;;;;;;6244012;23;20341;-93
2023/09/17 06:56:08;;;;;;;17.88;12.85;;;;;;;;;;6244210;23;20062;-93
2023/09/17 06:58:34;;;;;;;16.40;11.75;;;;;;;;;;6245312;23;20019;-89
2023/09/17 07:01:00;;;;;;;17.30;12.73;;;;;;;;;;6243896;23;20016;-93
2023/09/17 07:03:26;;;;;;;15.52;11.63;;;;;;;;;;6244491;23;20473;-92
2023/09/17 07:05:52;;;;;;;16.25;12.23;;;;;;;;;;6216753;23;20098;-90
2023/09/17 07:08:19;;;;;;;17.92;12.15;;;;;;;;;;6216910;23;20023;-93
2023/09/17 07:10:45;;;;;;;16.48;12.65;;;;;;;;;;6218670;23;20015;-92
2023/09/17 07:13:12;;;;;;;14.85;10.88;;;;;;;;;;6216703;23;20338;-87
2023/09/17 07:15:38;;;;;;;16.98;12.20;;;;;;;;;;6243321;23;20078;-91
2023/09/17 07:18:07;;;;;;;15.75;12.02;;;;;;;;;;6214954;23;20016;-89
2023/09/17 07:20:33;;;;;;;16.05;12.13;;;;;;;;;;6242713;23;20012;-89
2023/09/17 07:22:59;;;;;;;16.45;12.10;;;;;;;;;;6214253;23;20043;-91
2023/09/17 07:25:25;;;;;;;16.20;13.05;;;;;;;;;;6215215;23;20074;-89
2023/09/17 07:27:51;;;;;;;16.10;12.05;;;;;;;;;;6214900;23;20468;-88
2023/09/17 07:30:17;;;;;;;16.92;12.05;;;;;;;;;;6214935;23;20091;-91
2023/09/17 07:32:43;;;;;;;16.23;11.68;;;;;;;;;;6243025;23;20051;-90
2023/09/17 07:35:09;;;;;;;17.50;12.63;;;;;;;;;;6215087;23;20349;-90
2023/09/17 07:37:35;;;;;;;12.93;10.52;;;;;;;;;;6215461;23;20023;-90
2023/09/17 07:40:04;;;;;;;16.08;12.23;;;;;;;;;;6242721;23;20031;-92
2023/09/17 07:42:30;;;;;;;15.80;12.35;;;;;;;;;;6215893;23;20020;-91
2023/09/17 07:44:56;;;;;;;12.68;10.57;;;;;;;;;;6216078;23;20044;-90
2023/09/17 07:47:22;;;;;;;16.05;12.65;;;;;;;;;;6217450;23;20070;-90
2023/09/17 07:49:49;;;;;;;13.77;11.13;;;;;;;;;;6219734;23;20016;-87
2023/09/17 07:52:15;;;;;;;13.60;10.98;;;;;;;;;;6225773;23;20031;-89
2023/09/17 07:54:42;;;;;;;15.63;11.45;;;;;;;;;;6233595;23;20052;-85
2023/09/17 07:57:12;;;;;;;15.95;12.10;;;;;;;;;;6261542;23;20012;-89
2023/09/17 07:59:38;;;;;;;;;;;;;;;;;;6226062;23;20008;-92
2023/09/17 08:02:04;;;;;;;13.55;10.18;;;;;;;;;;6213814;23;19918;-90
2023/09/17 08:04:30;;;;;;;15.02;10.90;;;;;;;;;;6214538;23;20385;-89
2023/09/17 08:06:57;;;;;;;13.60;10.65;;;;;;;;;;6213921;23;20087;-88
2023/09/17 08:09:23;;;;;;;14.73;11.15;;;;;;;;;;6214657;23;20066;-91
2023/09/17 08:11:49;;;;;;;14.98;11.90;;;;;;;;;;6215122;23;20016;-90
2023/09/17 08:14:15;;;;;;;14.88;11.30;;;;;;;;;;6214518;23;20024;-92
2023/09/17 08:16:41;;;;;;;16.90;11.57;;;;;;;;;;6169191;23;1085485;-91
2023/09/17 08:19:07;;;;;;;17.05;11.60;;;;;;;;;;6242340;23;20406;-91
2023/09/17 08:21:34;;;;;;;17.45;12.60;;;;;;;;;;6242966;23;20015;-92
2023/09/17 08:24:00;;;;;;;17.02;12.73;;;;;;;;;;6242650;23;20026;-93
2023/09/17 08:26:27;;;;;;;16.70;12.15;;;;;;;;;;6215754;23;20066;-90
2023/09/17 08:28:56;;;;;;;18.48;14.05;;;;;;;;;;6243387;23;20066;-91
2023/09/17 08:31:22;;;;;;;19.63;13.23;;;;;;;;;;6243027;23;20016;-92
2023/09/17 08:33:49;;;;;;;16.10;12.15;;;;;;;;;;6242620;23;20067;-90
2023/09/17 08:36:15;;;;;;;17.00;13.00;;;;;;;;;;6214501;23;20400;-89
2023/09/17 08:38:42;;;;;;;14.65;11.98;;;;;;;;;;6215995;23;20191;-90
2023/09/17 08:41:08;;;;;;;15.90;11.90;;;;;;;;;;6214903;23;20032;-92
2023/09/17 08:43:34;;;;;;;16.75;13.23;;;;;;;;;;6216479;23;20017;-89
2023/09/17 08:46:01;;;;;;;16.52;13.18;;;;;;;;;;6215510;23;20067;-89
2023/09/17 08:48:27;;;;;;;16.92;12.52;;;;;;;;;;6215496;23;20015;-87
2023/09/17 08:50:55;;;;;;;16.35;12.07;;;;;;;;;;6242211;23;20021;-89
2023/09/17 08:53:26;;;;;;;17.35;12.27;;;;;;;;;;6242479;23;20437;-90
2023/09/17 08:55:54;;;;;;;17.30;12.50;;;;;;;;;;6242249;23;20456;-89
2023/09/17 08:58:24;;;;;;;17.83;12.73;;;;;;;;;;6215644;23;20337;-88
2023/09/17 09:00:50;;;;;;;17.95;13.52;;;;;;;;;;6215339;23;20020;-88
2023/09/17 09:03:18;;;;;;;16.67;12.13;;;;;;;;;;6242325;23;20365;-91
2023/09/17 09:05:44;;;;;;;18.45;12.75;;;;;;;;;;6190485;23;20020;-88
2023/09/17 09:08:12;;;;;;;17.13;12.68;;;;;;;;;;6241470;23;20027;-91
2023/09/17 09:10:38;;;;;;;17.45;12.07;;;;;;;;;;6191069;23;20016;-91
2023/09/17 09:13:04;;;;;;;16.38;12.20;;;;;;;;;;6216827;23;20107;-91
2023/09/17 09:15:31;;;;;;;17.15;12.63;;;;;;;;;;6244958;22;20016;-89
2023/09/17 09:17:57;;;;;;;17.98;12.85;;;;;;;;;;6244039;23;20035;-89
2023/09/17 09:20:23;;;;;;;16.10;11.88;;;;;;;;;;6216661;23;20091;-88
2023/09/17 09:22:49;;;;;;;16.73;12.55;;;;;;;;;;6217062;23;20016;-89
2023/09/17 09:25:16;;;;;;;15.63;12.68;;;;;;;;;;6244326;23;20016;-90
2023/09/17 09:27:42;;;;;;;17.15;13.32;;;;;;;;;;6217903;23;20031;-89
2023/09/17 09:30:14;;;;;;;16.77;11.95;;;;;;;;;;6244349;23;20016;-91
2023/09/17 09:32:41;;;;;;;16.10;12.38;;;;;;;;;;6217414;23;20020;-87
2023/09/17 09:35:08;;;;;;;15.75;12.60;;;;;;;;;;6216508;23;20058;-90
2023/09/17 09:37:35;;;;;;;14.45;11.70;;;;;;;;;;6217460;23;20016;-88
2023/09/17 09:40:01;;;;;;;13.70;11.05;;;;;;;;;;6217131;23;20016;-89
2023/09/17 09:42:27;;;;;;;13.18;10.52;;;;;;;;;;6217575;23;20086;-86
2023/09/17 09:44:54;;;;;;;14.60;10.65;;;;;;;;;;6217217;23;20334;-90
2023/09/17 09:47:22;;;;;;;13.07;10.18;;;;;;;;;;6216810;23;20086;-88
2023/09/17 09:49:48;;;;;;;13.50;10.77;;;;;;;;;;6244924;23;20012;-88
2023/09/17 09:52:15;;;;;;;12.15;9.70;;;;;;;;;;6244325;23;20020;-88
2023/09/17 09:54:41;;;;;;;15.05;10.75;;;;;;;;;;6217905;23;20374;-88
2023/09/17 09:57:07;;;;;;;13.70;10.23;;;;;;;;;;6217093;23;20012;-91
2023/09/17 09:59:34;;;;;;;13.73;10.00;;;;;;;;;;6244211;23;20016;-91
2023/09/17 10:02:02;;;;;;;12.95;9.93;;;;;;;;;;6243318;23;20012;-86
2023/09/17 10:04:28;;;;;;;13.93;10.70;;;;;;;;;;6243564;23;20187;-90
2023/09/17 10:06:55;;;;;;;14.30;10.77;;;;;;;;;;6243706;23;20011;-90
2023/09/17 10:09:23;;;;;;;12.38;9.02;;;;;;;;;;6216193;23;20386;-88
2023/09/17 10:11:49;;;;;;;12.60;9.98;;;;;;;;;;6243662;23;20023;-89
2023/09/17 10:14:15;;;;;;;13.25;10.50;;;;;;;;;;6244154;23;20016;-88
2023/09/17 10:16:41;;;;;;;14.18;10.27;;;;;;;;;;6243149;23;20084;-87
2023/09/17 10:19:07;;;;;;;14.57;10.80;;;;;;;;;;6243362;23;20302;-88
2023/09/17 10:21:37;;;;;;;18.23;12.00;;;;;;;;;;6244387;23;20039;-88
2023/09/17 10:24:04;;;;;;;14.90;10.63;;;;;;;;;;6243314;23;20047;-88
2023/09/17 10:26:41;;;;;;;14.13;10.63;;;;;;;;;;6243598;23;20078;-90
2023/09/17 10:29:07;;;;;;;15.40;11.75;;;;;;;;;;6244250;23;20338;-89
2023/09/17 10:31:35;;;;;;;16.15;11.85;;;;;;;;;;6217246;23;20012;-90
2023/09/17 10:34:02;;;;;;;16.10;11.85;;;;;;;;;;6243396;23;20063;-90
2023/09/17 10:36:31;;;;;;;16.60;12.13;;;;;;;;;;6217329;23;20127;-89
2023/09/17 10:38:59;;;;;;;17.42;12.48;;;;;;;;;;6216895;23;20294;-89
2023/09/17 10:41:28;;;;;;;17.95;11.82;;;;;;;;;;6245111;23;20019;-91
2023/09/17 10:43:55;;;;;;;17.58;12.82;;;;;;;;;;6244140;23;20023;-87
2023/09/17 10:46:22;;;;;;;14.73;10.90;;;;;;;;;;6217046;23;20323;-91
2023/09/17 10:48:48;;;;;;;14.57;11.52;;;;;;;;;;6246434;23;20018;-93
2023/09/17 10:51:14;;;;;;;16.65;11.80;;;;;;;;;;6222116;23;20379;-92
2023/09/17 10:53:40;;;;;;;15.95;11.35;;;;;;;;;;6250652;23;20059;-94
2023/09/17 10:56:06;;;;;;;17.90;12.60;;;;;;;;;;6220797;23;20016;-93
2023/09/17 10:58:36;;;;;;;15.55;11.18;;;;;;;;;;6245504;23;20012;-92
2023/09/17 11:01:02;;;;;;;15.48;10.68;;;;;;;;;;6218033;23;20020;-92
2023/09/17 11:03:31;;;;;;;15.60;11.25;;;;;;;;;;6244504;23;20030;-94
2023/09/17 11:05:57;;;;;;;16.23;11.43;;;;;;;;;;6226712;23;20028;-89
2023/09/17 11:08:23;;;;;;;17.85;12.05;;;;;;;;;;6254564;23;20024;-94
2023/09/17 11:10:49;;;;;;;18.38;12.48;;;;;;;;;;6245657;23;20012;-90
2023/09/17 11:13:16;;;;;;;16.17;11.82;;;;;;;;;;6244081;23;20020;-95
2023/09/17 11:15:42;;;;;;;18.73;12.90;;;;;;;;;;6212560;23;20026;-92
2023/09/17 11:18:09;;;;;;;16.40;12.60;;;;;;;;;;6214527;23;20512;-90
2023/09/17 11:20:38;;;;;;;14.65;11.77;;;;;;;;;;6215995;23;20374;-90
2023/09/17 11:23:05;;;;;;;18.05;12.80;;;;;;;;;;6214969;23;20016;-90
2023/09/17 11:25:35;;;;;;;16.70;12.18;;;;;;;;;;6212455;23;20012;-88
2023/09/17 11:28:15;;;;;;;18.17;12.68;;;;;;;;;;6212512;23;20024;-83
2023/09/17 11:30:58;;;;;;;16.05;11.60;;;;;;;;;;6212640;23;20163;-89
2023/09/17 11:33:24;;;;;;;15.95;12.57;;;;;;;;;;6210951;23;20024;-89
2023/09/17 11:35:50;;;;;;;17.08;12.65;;;;;;;;;;6209802;23;20452;-86
2023/09/17 11:38:16;;;;;;;18.80;13.35;;;;;;;;;;6210722;23;20008;-91
2023/09/17 11:40:43;;;;;;;18.80;12.32;;;;;;;;;;6213162;23;20020;-92
2023/09/17 11:43:09;;;;;;;15.77;12.25;;;;;;;;;;6209450;23;20020;-87
2023/09/17 11:45:35;;;;;;;18.15;12.90;;;;;;;;;;6210309;23;20446;-88
2023/09/17 11:48:06;;;;;;;17.17;12.13;;;;;;;;;;6210262;23;20084;-89
2023/09/17 11:50:33;;;;;;;17.38;12.73;;;;;;;;;;6212643;23;20020;-86
2023/09/17 11:53:06;;;;;;;17.55;12.77;;;;;;;;;;6210852;23;20070;-87
2023/09/17 11:55:34;;;;;;;17.20;12.75;;;;;;;;;;6211275;23;20017;-86
2023/09/17 11:58:32;;;;;;;17.17;12.90;;;;;;;;;;6210581;23;20135;-87
2023/09/17 12:00:58;;;;;;;17.27;12.43;;;;;;;;;;6210124;23;20084;-87
2023/09/17 12:03:26;;;;;;;18.10;12.48;;;;;;;;;;6209235;23;20098;-86
2023/09/17 12:05:52;;;;;;;16.52;12.52;;;;;;;;;;6211099;23;20102;-86
2023/09/17 12:08:20;;;;;;;17.33;12.73;;;;;;;;;;6210215;23;20017;-88
2023/09/17 12:10:53;;;;;;;17.70;12.45;;;;;;;;;;6211584;23;20458;-87
2023/09/17 12:13:19;;;;;;;16.38;12.57;;;;;;;;;;6211172;23;20016;-86
2023/09/17 12:15:46;;;;;;;19.42;12.10;;;;;;;;;;6210162;23;20081;-87
2023/09/17 12:18:12;;;;;;;18.05;11.95;;;;;;;;;;6211594;23;20016;-89
2023/09/17 12:20:52;;;;;;;18.77;13.30;;;;;;;;;;6213904;23;20043;-89
2023/09/17 12:23:26;;;;;;;15.00;11.60;;;;;;;;;;6215602;23;20358;-89
2023/09/17 12:25:53;;;;;;;16.20;12.70;;;;;;;;;;6212907;23;20051;-88
2023/09/17 12:28:28;;;;;;;18.55;13.85;;;;;;;;;;6213185;23;20008;-88
2023/09/17 12:30:54;;;;;;;19.50;14.27;;;;;;;;;;6213364;23;20450;-90
2023/09/17 12:33:20;;;;;;;17.95;13.13;;;;;;;;;;6213116;23;20027;-88
2023/09/17 12:35:46;;;;;;;16.45;12.90;;;;;;;;;;6216128;23;20016;-89
2023/09/17 12:38:12;;;;;;;20.73;13.77;;;;;;;;;;6215653;23;20019;-90
2023/09/17 12:40:38;;;;;;;19.70;13.10;;;;;;;;;;6216053;23;20409;-90
2023/09/17 12:43:04;;;;;;;18.75;13.43;;;;;;;;;;6234470;23;20021;-89
2023/09/17 12:45:30;;;;;;;21.08;15.40;;;;;;;;;;6230752;23;20094;-90
2023/09/17 12:47:57;;;;;;;20.45;13.88;;;;;;;;;;6235748;23;20024;-90
2023/09/17 12:50:23;;;;;;;18.25;13.38;;;;;;;;;;6219026;23;20040;-90
2023/09/17 12:52:49;;;;;;;19.00;13.73;;;;;;;;;;6213388;23;20054;-90
2023/09/17 12:55:15;;;;;;;17.05;13.35;;;;;;;;;;6214246;23;20020;-90
2023/09/17 12:57:41;;;;;;;20.30;13.88;;;;;;;;;;6212685;23;20047;-90
2023/09/17 13:00:08;;;;;;;20.02;13.82;;;;;;;;;;6214152;23;20051;-90
2023/09/17 13:02:35;;;;;;;20.75;14.48;;;;;;;;;;6213427;23;20016;-90
2023/09/17 13:05:01;;;;;;;17.80;14.00;;;;;;;;;;6212718;23;20024;-90
2023/09/17 13:07:28;;;;;;;20.67;15.05;;;;;;;;;;6212759;23;20030;-90
2023/09/17 13:09:56;;;;;;;20.63;14.70;;;;;;;;;;6214585;23;20066;-90
2023/09/17 13:12:23;;;;;;;21.17;15.13;;;;;;;;;;6213937;23;20430;-90
2023/09/17 13:14:51;;;;;;;23.80;16.45;;;;;;;;;;6214198;23;20015;-90
2023/09/17 13:17:18;;;;;;;22.90;15.70;;;;;;;;;;6240003;23;20016;-90
2023/09/17 13:19:44;;;;;;;23.13;16.60;;;;;;;;;;6217470;23;20334;-90
2023/09/17 13:22:11;;;;;;;26.13;16.50;;;;;;;;;;6244261;23;20023;-89
2023/09/17 13:24:37;;;;;;;23.40;16.52;;;;;;;;;;6244827;23;20016;-90
2023/09/17 13:27:03;;;;;;;24.00;17.67;;;;;;;;;;6215517;23;20039;-90
2023/09/17 13:29:36;;;;;;;24.50;16.80;;;;;;;;;;6216729;23;20147;-90
2023/09/17 13:32:03;;;;;;;24.45;17.42;;;;;;;;;;6244260;23;20067;-89
2023/09/17 13:34:30;;;;;;;27.48;18.52;;;;;;;;;;6243212;23;20027;-90
2023/09/17 13:36:59;;;;;;;27.83;18.30;;;;;;;;;;6243782;23;20019;-89
2023/09/17 13:39:25;;;;;;;27.63;18.13;;;;;;;;;;6217084;23;20019;-91
2023/09/17 13:41:54;;;;;;;26.67;19.30;;;;;;;;;;6243260;23;20020;-90
2023/09/17 13:44:20;;;;;;;29.48;19.33;;;;;;;;;;6217501;23;20027;-89
2023/09/17 13:46:47;;;;;;;30.95;20.17;;;;;;;;;;6243160;23;20047;-90
2023/09/17 13:49:13;;;;;;;24.25;17.80;;;;;;;;;;6192299;23;20012;-92
2023/09/17 13:51:39;;;;;;;27.55;19.17;;;;;;;;;;6245288;23;20127;-92
2023/09/17 13:54:05;;;;;;;27.60;17.73;;;;;;;;;;6216378;23;20012;-91
2023/09/17 13:56:31;;;;;;;27.83;18.60;;;;;;;;;;6218613;23;20028;-91
2023/09/17 13:58:57;;;;;;;26.58;18.50;;;;;;;;;;6218055;23;20016;-92
2023/09/17 14:01:23;;;;;;;26.83;17.83;;;;;;;;;;6217818;23;20012;-91
2023/09/17 14:03:49;;;;;;;26.38;18.92;;;;;;;;;;6245026;23;20020;-91
2023/09/17 14:06:15;;;;;;;27.70;19.02;;;;;;;;;;6216535;23;20295;-83
2023/09/17 14:08:41;;;;;;;26.30;17.33;;;;;;;;;;6242419;23;20020;-84
2023/09/17 14:11:07;;;;;;;22.70;16.08;;;;;;;;;;6240885;23;20086;-85
2023/09/17 14:13:35;;;;;;;25.90;17.25;;;;;;;;;;6241227;23;20019;-85
2023/09/17 14:16:01;;;;;;;27.13;16.80;;;;;;;;;;6240345;23;20028;-84